createdAt,value
2023-04-03T14:10:14.159Z,6.07
2023-04-03T14:12:42.874Z,6.14
2023-04-03T14:15:19.393Z,6.15
2023-04-03T14:17:47.799Z,6.13
2023-04-03T14:20:22.812Z,6.20
2023-04-03T14:22:52.370Z,6.22
2023-04-03T14:25:24.694Z,6.23
2023-04-03T14:27:56.134Z,6.26
2023-04-03T14:30:41.756Z,6.23
2023-04-03T14:33:15.148Z,6.20
2023-04-03T14:35:43.485Z,6.16
2023-04-03T14:41:34.317Z,6.06
2023-04-03T14:44:02.973Z,5.90
2023-04-03T14:46:45.512Z,5.89
2023-04-03T14:49:25.726Z,5.91
2023-04-03T14:51:54.413Z,5.93
2023-04-03T14:54:29.226Z,5.92
2023-04-03T14:57:01.564Z,5.98
2023-04-03T14:59:31.864Z,5.99
2023-04-03T15:02:00.278Z,6.02
2023-04-03T15:04:29.196Z,6.05
2023-04-03T15:06:57.600Z,6.02
2023-04-03T15:09:28.569Z,6.08
2023-04-03T15:12:00.144Z,6.08
2023-04-03T15:14:37.016Z,6.11
2023-04-03T15:17:17.063Z,6.14
2023-04-03T15:19:45.778Z,6.05
2023-04-03T15:22:17.120Z,6.05
2023-04-03T15:24:46.347Z,6.00
2023-04-03T15:27:17.124Z,5.99
2023-04-03T15:29:47.410Z,6.01
2023-04-03T15:32:15.926Z,5.93
2023-04-03T15:34:45.670Z,5.91
2023-04-03T15:37:14.152Z,5.92
2023-04-03T15:39:42.658Z,6.02
2023-04-03T15:42:11.117Z,6.36
2023-04-03T15:44:41.303Z,7.56
2023-04-03T15:47:10.154Z,8.90
2023-04-03T15:49:38.750Z,10.10
2023-04-03T15:52:08.433Z,11.06
2023-04-03T15:54:36.776Z,11.93
2023-04-03T15:57:05.356Z,12.65
2023-04-03T15:59:33.925Z,13.01
2023-04-03T16:02:08.330Z,13.43
2023-04-03T16:04:37.388Z,13.83
2023-04-03T16:07:07.790Z,14.02
2023-04-03T16:09:37.363Z,14.31
2023-04-03T16:12:07.162Z,14.44
2023-04-03T16:14:35.574Z,14.63
2023-04-03T16:17:05.564Z,14.64
2023-04-03T16:19:34.103Z,14.48
2023-04-03T16:22:02.684Z,14.51
2023-04-03T16:24:33.395Z,14.54
2023-04-03T16:27:02.044Z,14.38
2023-04-03T16:29:33.908Z,14.28
2023-04-03T16:32:02.499Z,14.06
2023-04-03T16:34:33.864Z,13.80
2023-04-03T16:37:02.594Z,13.59
2023-04-03T16:39:31.432Z,13.18
2023-04-03T16:41:59.804Z,12.97
2023-04-03T16:44:28.361Z,12.83
2023-04-03T16:46:59.301Z,12.83
2023-04-03T16:49:31.337Z,12.77
2023-04-03T16:52:01.586Z,12.67
2023-04-03T16:54:30.659Z,12.65
2023-04-03T16:56:59.165Z,12.43
2023-04-03T16:59:27.836Z,12.13
2023-04-03T17:01:56.645Z,11.08
2023-04-03T17:04:25.122Z,10.16
2023-04-03T17:06:56.812Z,9.37
2023-04-03T17:09:26.809Z,8.67
2023-04-03T17:11:55.150Z,8.03
2023-04-03T17:14:23.607Z,7.53
2023-04-03T17:16:52.525Z,7.12
2023-04-03T17:19:21.037Z,6.64
2023-04-03T17:21:51.712Z,6.22
2023-04-03T17:24:20.728Z,5.87
2023-04-03T17:26:50.590Z,5.56
2023-04-03T17:29:19.191Z,5.31
2023-04-03T17:31:51.297Z,5.04
2023-04-03T17:34:19.711Z,4.81
2023-04-03T17:36:51.271Z,4.58
2023-04-03T17:39:19.854Z,4.36
2023-04-03T17:41:49.756Z,4.19
2023-04-03T17:44:47.885Z,4.00
2023-04-03T17:47:19.081Z,3.78
2023-04-03T17:49:47.942Z,3.66
2023-04-03T17:52:16.412Z,3.55
2023-04-03T17:54:47.539Z,3.41
2023-04-03T17:57:19.307Z,3.23
2023-04-03T17:59:48.214Z,3.10
2023-04-03T18:02:16.691Z,3.00
2023-04-03T18:04:45.119Z,2.93
2023-04-03T18:07:13.919Z,2.84
2023-04-03T18:09:42.813Z,2.78
2023-04-03T18:12:36.300Z,2.72
2023-04-03T18:15:11.982Z,2.63
2023-04-03T18:17:40.517Z,2.56
2023-04-03T18:20:10.378Z,2.48
2023-04-03T18:22:39.003Z,2.46
2023-04-03T18:25:08.041Z,2.41
2023-04-03T18:27:37.965Z,2.32
2023-04-03T18:30:14.449Z,2.23
2023-04-03T18:32:43.250Z,2.13
2023-04-03T18:35:11.864Z,2.13
2023-04-03T18:37:40.380Z,2.04
2023-04-03T18:40:09.895Z,1.94
2023-04-03T18:42:38.259Z,1.90
2023-04-03T18:45:08.206Z,1.82
2023-04-03T18:47:38.339Z,1.75
2023-04-03T18:50:07.500Z,1.70
2023-04-03T18:52:35.902Z,1.60
2023-04-03T18:55:04.191Z,1.57
2023-04-03T18:57:32.552Z,1.47
2023-04-03T19:00:02.127Z,1.45
2023-04-03T19:02:31.063Z,1.38
2023-04-03T19:05:03.534Z,1.34
2023-04-03T19:07:48.186Z,1.26
2023-04-03T19:10:18.381Z,1.22
2023-04-03T19:12:47.252Z,1.16
2023-04-03T19:15:18.121Z,1.08
2023-04-03T19:17:57.120Z,1.01
2023-04-03T19:20:36.907Z,0.99
2023-04-03T19:23:09.912Z,0.93
2023-04-03T19:25:40.490Z,0.89
2023-04-03T19:28:11.316Z,0.86
2023-04-03T19:30:40.806Z,0.79
2023-04-03T19:33:10.955Z,0.79
2023-04-03T19:35:46.735Z,0.73
2023-04-03T19:38:15.115Z,0.74
2023-04-03T19:40:53.816Z,0.68
2023-04-03T19:43:22.096Z,0.65
2023-04-03T19:45:51.166Z,0.58
2023-04-03T19:48:19.833Z,0.52
2023-04-03T19:50:55.109Z,0.47
2023-04-03T19:53:29.295Z,0.43
2023-04-03T19:55:58.508Z,0.35
2023-04-03T19:58:30.258Z,0.32
2023-04-03T20:00:59.356Z,0.28
2023-04-03T20:03:28.492Z,0.25
2023-04-03T20:05:58.356Z,0.18
2023-04-03T20:08:29.217Z,0.15
2023-04-03T20:10:58.228Z,0.12
2023-04-03T20:13:27.482Z,0.06
2023-04-03T20:15:56.304Z,0.04
2023-04-03T20:18:24.652Z,-0.04
2023-04-03T20:20:58.650Z,-0.08
2023-04-03T20:23:27.432Z,-0.11
2023-04-03T20:26:09.288Z,-0.13
2023-04-03T20:28:50.772Z,-0.14
2023-04-03T20:31:19.497Z,-0.17
2023-04-03T20:33:48.727Z,-0.18
2023-04-03T20:36:20.039Z,-0.21
2023-04-03T20:38:49.113Z,-0.19
2023-04-03T20:41:18.146Z,-0.22
2023-04-03T20:43:47.913Z,-0.22
2023-04-03T20:46:19.852Z,-0.22
2023-04-03T20:48:48.937Z,-0.23
2023-04-03T20:51:20.346Z,-0.25
2023-04-03T20:53:49.769Z,-0.30
2023-04-03T20:56:18.823Z,-0.33
2023-04-03T20:58:47.758Z,-0.40
2023-04-03T21:01:18.709Z,-0.47
2023-04-03T21:03:47.829Z,-0.46
2023-04-03T21:06:55.490Z,-0.49
2023-04-03T21:10:01.016Z,-0.51
2023-04-03T21:13:08.027Z,-0.54
2023-04-03T21:15:48.254Z,-0.56
2023-04-03T21:18:30.032Z,-0.60
2023-04-03T21:20:58.324Z,-0.60
2023-04-03T21:23:30.129Z,-0.63
2023-04-03T21:25:58.972Z,-0.66
2023-04-03T21:28:27.564Z,-0.69
2023-04-03T21:30:55.946Z,-0.72
2023-04-03T21:33:25.588Z,-0.76
2023-04-03T21:36:01.699Z,-0.78
2023-04-03T21:38:43.812Z,-0.80
2023-04-03T21:41:12.303Z,-0.85
2023-04-03T21:43:58.948Z,-0.91
2023-04-03T21:46:27.752Z,-0.94
2023-04-03T21:48:58.057Z,-0.98
2023-04-03T21:51:27.972Z,-1.02
2023-04-03T21:53:56.503Z,-1.05
2023-04-03T21:56:25.449Z,-1.07
2023-04-03T21:58:53.796Z,-1.14
2023-04-03T22:01:22.844Z,-1.15
2023-04-03T22:03:51.312Z,-1.16
2023-04-03T22:06:20.935Z,-1.22
2023-04-03T22:08:50.752Z,-1.28
2023-04-03T22:11:22.597Z,-1.32
2023-04-03T22:13:53.217Z,-1.37
2023-04-03T22:16:23.553Z,-1.39
2023-04-03T22:18:53.078Z,-1.43
2023-04-03T22:21:22.658Z,-1.45
2023-04-03T22:23:50.850Z,-1.46
2023-04-03T22:26:19.369Z,-1.47
2023-04-03T22:28:48.644Z,-1.46
2023-04-03T22:31:19.225Z,-1.48
2023-04-03T22:33:47.438Z,-1.52
2023-04-03T22:36:16.134Z,-1.53
2023-04-03T22:38:47.090Z,-1.53
2023-04-03T22:41:15.744Z,-1.54
2023-04-03T22:43:49.285Z,-1.57
2023-04-03T22:46:20.353Z,-1.55
2023-04-03T22:48:48.558Z,-1.56
2023-04-03T22:51:16.791Z,-1.56
2023-04-03T22:53:46.650Z,-1.61
2023-04-03T22:56:15.586Z,-1.58
2023-04-03T22:58:44.858Z,-1.58
2023-04-03T23:01:16.035Z,-1.59
2023-04-03T23:03:44.473Z,-1.62
2023-04-03T23:06:13.502Z,-1.69
2023-04-03T23:08:42.876Z,-1.70
2023-04-03T23:11:12.754Z,-1.71
2023-04-03T23:13:53.095Z,-1.73
2023-04-03T23:16:21.697Z,-1.76
2023-04-03T23:18:50.189Z,-1.78
2023-04-03T23:21:18.523Z,-1.83
2023-04-03T23:23:48.048Z,-1.82
2023-04-03T23:26:18.125Z,-1.84
2023-04-03T23:28:55.722Z,-1.91
2023-04-03T23:31:25.986Z,-1.89
2023-04-03T23:33:54.233Z,-1.96
2023-04-03T23:36:22.454Z,-2.05
2023-04-03T23:38:50.625Z,-2.10
2023-04-03T23:41:21.261Z,-2.18
2023-04-03T23:43:52.598Z,-2.23
2023-04-03T23:46:20.750Z,-2.32
2023-04-03T23:48:49.570Z,-2.41
2023-04-03T23:51:17.848Z,-2.44
2023-04-03T23:53:46.678Z,-2.48
2023-04-03T23:56:14.854Z,-2.52
2023-04-03T23:58:46.012Z,-2.53
